Observation data for Haskell on 08/12/2019      Previous  Date       Current Mesonet Observations  Soil Data  Daily Summary Page  Observations in Plain Language
KHA1 120500Z 13008G13KT 30/17 A2992 RMK A01 T03000167  RH  047%=      5-min Rain = 0
KHA1 120505Z 13009KT 30/17 A2991 RMK A01 T03000167  RH  047%=      5-min Rain = 0
KHA1 120510Z 14008KT 30/17 A2991 RMK A01 T02990168  RH  047%=      5-min Rain = 0
KHA1 120515Z 14008G15KT 30/17 A2991 RMK A01 T02980168  RH  048%=      5-min Rain = 0
KHA1 120520Z 14008KT 30/17 A2991 RMK A01 T02990168  RH  048%=      5-min Rain = 0
KHA1 120525Z 14007G12KT 30/17 A2991 RMK A01 T02970168  RH  048%=      5-min Rain = 0
KHA1 120530Z 14007KT 30/17 A2991 RMK A01 T02970167  RH  048%=      5-min Rain = 0
KHA1 120535Z 14007KT 30/17 A2991 RMK A01 T02970166  RH  048%=      5-min Rain = 0
KHA1 120540Z 15008KT 30/17 A2991 RMK A01 T02960166  RH  048%=      5-min Rain = 0
KHA1 120545Z 15007KT 30/17 A2991 RMK A01 T02950165  RH  048%=      5-min Rain = 0
KHA1 120550Z 16007KT 29/16 A2991 RMK A01 T02940164  RH  048%=      5-min Rain = 0
KHA1 120555Z 16008KT 29/16 A2991 RMK A01 T02940163  RH  047%=      5-min Rain = 0
KHA1 120600Z 16008G13KT 29/16 A2991 RMK A01 T02940162  RH  047%=      5-min Rain = 0
KHA1 120605Z 16008KT 29/16 A2991 RMK A01 T02940161  RH  047%=      5-min Rain = 0
KHA1 120610Z 16007G12KT 29/16 A2991 RMK A01 T02930160  RH  047%=      5-min Rain = 0
KHA1 120615Z 16007KT 29/16 A2991 RMK A01 T02920159  RH  047%=      5-min Rain = 0
KHA1 120620Z 16008KT 29/16 A2991 RMK A01 T02910158  RH  047%=      5-min Rain = 0
KHA1 120625Z 16007KT 29/16 A2991 RMK A01 T02900158  RH  047%=      5-min Rain = 0
KHA1 120630Z 16008KT 29/16 A2991 RMK A01 T02900157  RH  047%=      5-min Rain = 0
KHA1 120635Z 17007G12KT 29/16 A2991 RMK A01 T02900156  RH  046%=      5-min Rain = 0
KHA1 120640Z 17008KT 29/16 A299 RMK A01 T02890156  RH  046%=      5-min Rain = 0
KHA1 120645Z 17008G13KT 29/16 A299 RMK A01 T02880155  RH  046%=      5-min Rain = 0
KHA1 120650Z 17009KT 29/16 A299 RMK A01 T02880155  RH  046%=      5-min Rain = 0
KHA1 120655Z 17009G14KT 29/15 A299 RMK A01 T02870154  RH  047%=      5-min Rain = 0
KHA1 120700Z 17008KT 29/16 A299 RMK A01 T02870155  RH  047%=      5-min Rain = 0
KHA1 120705Z 17008G13KT 29/16 A299 RMK A01 T02860155  RH  047%=      5-min Rain = 0
KHA1 120710Z 17008KT 29/15 A299 RMK A01 T02850154  RH  047%=      5-min Rain = 0
KHA1 120715Z 17006KT 28/16 A299 RMK A01 T02840155  RH  048%=      5-min Rain = 0
KHA1 120720Z 17007KT 28/16 A299 RMK A01 T02840155  RH  048%=      5-min Rain = 0
KHA1 120725Z 17007KT 28/16 A299 RMK A01 T02830155  RH  048%=      5-min Rain = 0
KHA1 120730Z 17006KT 28/16 A2989 RMK A01 T02820155  RH  048%=      5-min Rain = 0
KHA1 120735Z 18006KT 28/16 A299 RMK A01 T02810155  RH  048%=      5-min Rain = 0
KHA1 120740Z 17005KT 28/16 A299 RMK A01 T02810155  RH  048%=      5-min Rain = 0
KHA1 120745Z 17006KT 28/16 A2989 RMK A01 T02800155  RH  049%=      5-min Rain = 0
KHA1 120750Z 18006KT 28/16 A2989 RMK A01 T02800155  RH  049%=      5-min Rain = 0
KHA1 120755Z 18005KT 28/16 A2989 RMK A01 T02790155  RH  049%=      5-min Rain = 0
KHA1 120800Z 17006KT 28/16 A2989 RMK A01 T02780155  RH  049%=      5-min Rain = 0
KHA1 120805Z 17005KT 28/16 A2989 RMK A01 T02780156  RH  050%=      5-min Rain = 0
KHA1 120810Z 17006KT 28/16 A2989 RMK A01 T02780156  RH  050%=      5-min Rain = 0
KHA1 120815Z 18005KT 28/16 A2989 RMK A01 T02790156  RH  050%=      5-min Rain = 0
KHA1 120820Z 18005KT 28/16 A2989 RMK A01 T02770156  RH  050%=      5-min Rain = 0
KHA1 120825Z 18005KT 28/16 A2989 RMK A01 T02760156  RH  050%=      5-min Rain = 0
KHA1 120830Z 18005KT 28/16 A2989 RMK A01 T02750157  RH  051%=      5-min Rain = 0
KHA1 120835Z 18005KT 27/16 A2989 RMK A01 T02740157  RH  051%=      5-min Rain = 0
KHA1 120840Z 18005KT 27/16 A2989 RMK A01 T02740157  RH  051%=      5-min Rain = 0
KHA1 120845Z 19005KT 27/16 A299 RMK A01 T02730157  RH  052%=      5-min Rain = 0
KHA1 120850Z 19005KT 27/16 A299 RMK A01 T02700157  RH  052%=      5-min Rain = 0
KHA1 120855Z 19005KT 27/16 A2989 RMK A01 T02690157  RH  053%=      5-min Rain = 0
KHA1 120900Z 19004KT 27/16 A2989 RMK A01 T02690157  RH  053%=      5-min Rain = 0
KHA1 120905Z 19005KT 27/16 A299 RMK A01 T02660157  RH  054%=      5-min Rain = 0
KHA1 120910Z 19004KT 26/16 A299 RMK A01 T02630156  RH  054%=      5-min Rain = 0
KHA1 120915Z 18003KT 26/16 A299 RMK A01 T02640158  RH  054%=      5-min Rain = 0
KHA1 120920Z 19004KT 27/16 A299 RMK A01 T02650158  RH  054%=      5-min Rain = 0
KHA1 120925Z 19004KT 26/16 A299 RMK A01 T02630157  RH  055%=      5-min Rain = 0
KHA1 120930Z 20005KT 26/16 A299 RMK A01 T02600156  RH  055%=      5-min Rain = 0
KHA1 120935Z 20005KT 25/16 A299 RMK A01 T02540156  RH  057%=      5-min Rain = 0
KHA1 120940Z 19005KT 25/16 A299 RMK A01 T02540156  RH  057%=      5-min Rain = 0
KHA1 120945Z 18005KT 26/16 A2989 RMK A01 T02590157  RH  056%=      5-min Rain = 0
KHA1 120950Z 18005KT 26/16 A2989 RMK A01 T02620159  RH  056%=      5-min Rain = 0
KHA1 120955Z 18005KT 27/16 A2989 RMK A01 T02650160  RH  055%=      5-min Rain = 0
KHA1 121000Z 18005KT 27/16 A2989 RMK A01 T02660160  RH  055%=      5-min Rain = 0
KHA1 121005Z 18006KT 27/16 A2989 RMK A01 T02650160  RH  055%=      5-min Rain = 0
KHA1 121010Z 19005KT 26/16 A2989 RMK A01 T02640160  RH  055%=      5-min Rain = 0
KHA1 121015Z 21005KT 26/16 A2989 RMK A01 T02600159  RH  056%=      5-min Rain = 0
KHA1 121020Z 21004KT 26/16 A2989 RMK A01 T02550159  RH  058%=      5-min Rain = 0
KHA1 121025Z 20004KT 25/16 A2989 RMK A01 T02520158  RH  059%=      5-min Rain = 0
KHA1 121030Z 20004KT 25/16 A2989 RMK A01 T02490157  RH  059%=      5-min Rain = 0
KHA1 121035Z 19003KT 25/16 A2989 RMK A01 T02480157  RH  060%=      5-min Rain = 0
KHA1 121040Z 19003KT 25/16 A299 RMK A01 T02490158  RH  060%=      5-min Rain = 0
KHA1 121045Z 18003KT 25/16 A299 RMK A01 T02490158  RH  060%=      5-min Rain = 0
KHA1 121050Z 18003KT 25/16 A299 RMK A01 T02510160  RH  060%=      5-min Rain = 0
KHA1 121055Z 19003KT 25/16 A2989 RMK A01 T02520159  RH  059%=      5-min Rain = 0
KHA1 121100Z 19004KT 25/16 A2989 RMK A01 T02470156  RH  060%=      5-min Rain = 0
KHA1 121105Z 19005KT 25/16 A2989 RMK A01 T02460158  RH  061%=      5-min Rain = 0
KHA1 121110Z 18005KT 25/16 A2989 RMK A01 T02530161  RH  059%=      5-min Rain = 0
KHA1 121115Z 18005KT 26/16 A2989 RMK A01 T02580163  RH  058%=      5-min Rain = 0
KHA1 121120Z 18005KT 26/16 A2989 RMK A01 T02600163  RH  058%=      5-min Rain = 0
KHA1 121125Z 19004KT 26/16 A299 RMK A01 T02590163  RH  058%=      5-min Rain = 0
KHA1 121130Z 18004KT 26/16 A299 RMK A01 T02580163  RH  059%=      5-min Rain = 0
KHA1 121135Z 19004KT 26/16 A299 RMK A01 T02560162  RH  059%=      5-min Rain = 0
KHA1 121140Z 19004KT 25/16 A299 RMK A01 T02490160  RH  060%=      5-min Rain = 0
KHA1 121145Z 18004KT 25/16 A299 RMK A01 T02510163  RH  061%=      5-min Rain = 0
KHA1 121150Z 18005KT 25/16 A2991 RMK A01 T02540164  RH  060%=      5-min Rain = 0
KHA1 121155Z 18004KT 26/17 A2991 RMK A01 T02570165  RH  060%=      5-min Rain = 0
KHA1 121200Z 17004KT 26/17 A2991 RMK A01 T02570165  RH  060%=      5-min Rain = 0
KHA1 121205Z 17004KT 26/17 A2991 RMK A01 T02570167  RH  060%=      5-min Rain = 0
KHA1 121210Z 17004KT 26/17 A2991 RMK A01 T02580167  RH  060%=      5-min Rain = 0
KHA1 121215Z 18005KT 26/17 A2991 RMK A01 T02600168  RH  060%=      5-min Rain = 0
KHA1 121220Z 20005KT 26/17 A2991 RMK A01 T02570165  RH  060%=      5-min Rain = 0
KHA1 121225Z 19004KT 25/16 A2991 RMK A01 T02480164  RH  062%=      5-min Rain = 0
KHA1 121230Z 17004KT 25/17 A2991 RMK A01 T02510167  RH  063%=      5-min Rain = 0
KHA1 121235Z 17005KT 26/17 A2991 RMK A01 T02570170  RH  061%=      5-min Rain = 0
KHA1 121240Z 17006KT 26/17 A2991 RMK A01 T02620171  RH  060%=      5-min Rain = 0
KHA1 121245Z 18005KT 26/17 A2991 RMK A01 T02630172  RH  060%=      5-min Rain = 0
KHA1 121250Z 18005KT 26/17 A2991 RMK A01 T02640173  RH  060%=      5-min Rain = 0
KHA1 121255Z 18006KT 27/17 A2991 RMK A01 T02650174  RH  060%=      5-min Rain = 0
KHA1 121300Z 18006KT 27/18 A2991 RMK A01 T02660176  RH  061%=      5-min Rain = 0
KHA1 121305Z 18006KT 27/18 A2991 RMK A01 T02680178  RH  061%=      5-min Rain = 0
KHA1 121310Z 18006KT 27/18 A2991 RMK A01 T02700179  RH  061%=      5-min Rain = 0
KHA1 121315Z 17005KT 27/18 A2991 RMK A01 T02730182  RH  061%=      5-min Rain = 0
KHA1 121320Z 17006KT 27/18 A2992 RMK A01 T02740184  RH  061%=      5-min Rain = 0
KHA1 121325Z 17005KT 28/19 A2992 RMK A01 T02750185  RH  061%=      5-min Rain = 0
KHA1 121330Z 17006KT 28/19 A2992 RMK A01 T02760185  RH  061%=      5-min Rain = 0
KHA1 121335Z 17006KT 28/19 A2992 RMK A01 T02770186  RH  061%=      5-min Rain = 0
KHA1 121340Z 17006KT 28/19 A2992 RMK A01 T02800188  RH  061%=      5-min Rain = 0
KHA1 121345Z 18008KT 28/19 A2992 RMK A01 T02840190  RH  060%=      5-min Rain = 0
KHA1 121350Z 19008KT 29/19 A2992 RMK A01 T02880191  RH  059%=      5-min Rain = 0
KHA1 121355Z 19009KT 29/19 A2993 RMK A01 T02900192  RH  059%=      5-min Rain = 0
KHA1 121400Z 20010KT 29/19 A2993 RMK A01 T02930194  RH  058%=      5-min Rain = 0
KHA1 121405Z 20011KT 30/20 A2993 RMK A01 T02950195  RH  058%=      5-min Rain = 0
KHA1 121410Z 19011KT 30/20 A2993 RMK A01 T02950195  RH  058%=      5-min Rain = 0
KHA1 121415Z 19011KT 30/20 A2993 RMK A01 T02980196  RH  057%=      5-min Rain = 0
KHA1 121420Z 19010KT 30/20 A2993 RMK A01 T03010196  RH  057%=      5-min Rain = 0
KHA1 121425Z 20011KT 30/20 A2993 RMK A01 T03030196  RH  056%=      5-min Rain = 0
KHA1 121430Z 19011KT 31/20 A2993 RMK A01 T03060197  RH  055%=      5-min Rain = 0
KHA1 121435Z 20011KT 31/20 A2992 RMK A01 T03100198  RH  054%=      5-min Rain = 0
KHA1 121440Z 20011G16KT 31/20 A2992 RMK A01 T03110197  RH  054%=      5-min Rain = 0
KHA1 121445Z 21014KT 31/20 A2992 RMK A01 T03120196  RH  053%=      5-min Rain = 0
KHA1 121450Z 20014KT 31/20 A2992 RMK A01 T03130197  RH  053%=      5-min Rain = 0
KHA1 121455Z 20011KT 32/20 A2992 RMK A01 T03170198  RH  052%=      5-min Rain = 0
KHA1 121500Z 20011G16KT 32/20 A2992 RMK A01 T03210199  RH  051%=      5-min Rain = 0
KHA1 121505Z 21013KT 32/20 A2992 RMK A01 T03180198  RH  052%=      5-min Rain = 0
KHA1 121510Z 21013G18KT 32/20 A2992 RMK A01 T03190198  RH  052%=      5-min Rain = 0
KHA1 121515Z 20011G16KT 32/20 A2992 RMK A01 T03220200  RH  051%=      5-min Rain = 0
KHA1 121520Z 21012KT 32/20 A2992 RMK A01 T03230199  RH  051%=      5-min Rain = 0
KHA1 121525Z 20012KT 33/20 A2992 RMK A01 T03260199  RH  050%=      5-min Rain = 0
KHA1 121530Z 20012G17KT 33/20 A2993 RMK A01 T03250199  RH  050%=      5-min Rain = 0
KHA1 121535Z 21011KT 33/20 A2993 RMK A01 T03300200  RH  049%=      5-min Rain = 0
KHA1 121540Z 20012G17KT 33/20 A2993 RMK A01 T03290199  RH  049%=      5-min Rain = 0
KHA1 121545Z 20011G17KT 33/20 A2993 RMK A01 T03290199  RH  049%=      5-min Rain = 0
KHA1 121550Z 19012KT 33/20 A2993 RMK A01 T03330200  RH  048%=      5-min Rain = 0
KHA1 121555Z 20011G17KT 33/20 A2993 RMK A01 T03330199  RH  048%=      5-min Rain = 0
KHA1 121600Z 20011G17KT 34/20 A2993 RMK A01 T03360201  RH  048%=      5-min Rain = 0
KHA1 121605Z 20009G14KT 34/20 A2993 RMK A01 T03380200  RH  047%=      5-min Rain = 0
KHA1 121610Z 20011KT 34/20 A2993 RMK A01 T03380199  RH  047%=      5-min Rain = 0
KHA1 121615Z 19012KT 34/20 A2993 RMK A01 T03400200  RH  047%=      5-min Rain = 0
KHA1 121620Z 20010G16KT 34/20 A2993 RMK A01 T03420201  RH  046%=      5-min Rain = 0
KHA1 121625Z 19012KT 35/20 A2993 RMK A01 T03450198  RH  045%=      5-min Rain = 0
KHA1 121630Z 21011G16KT 34/20 A2993 RMK A01 T03430198  RH  045%=      5-min Rain = 0
KHA1 121635Z 18009G16KT 35/20 A2993 RMK A01 T03470200  RH  045%=      5-min Rain = 0
KHA1 121640Z 20010G15KT 35/20 A2993 RMK A01 T03500199  RH  044%=      5-min Rain = 0
KHA1 121645Z 19011KT 35/20 A2993 RMK A01 T03490197  RH  043%=      5-min Rain = 0
KHA1 121650Z 19009G14KT 35/20 A2993 RMK A01 T03520201  RH  044%=      5-min Rain = 0
KHA1 121655Z 19011G17KT 36/20 A2992 RMK A01 T03550197  RH  042%=      5-min Rain = 0
KHA1 121700Z 18009G15KT 36/20 A2992 RMK A01 T03550200  RH  043%=      5-min Rain = 0
KHA1 121705Z 17010G15KT 35/20 A2992 RMK A01 T03540199  RH  043%=      5-min Rain = 0
KHA1 121710Z 17006G11KT 36/20 A2992 RMK A01 T03570203  RH  043%=      5-min Rain = 0
KHA1 121715Z 19010G16KT 36/20 A2992 RMK A01 T03620197  RH  040%=      5-min Rain = 0
KHA1 121720Z 18008G13KT 36/20 A2992 RMK A01 T03570198  RH  042%=      5-min Rain = 0
KHA1 121725Z 17010G15KT 35/20 A2992 RMK A01 T03540199  RH  043%=      5-min Rain = 0
KHA1 121730Z 17009G15KT 36/20 A2992 RMK A01 T03590198  RH  041%=      5-min Rain = 0
KHA1 121735Z 19009G14KT 36/19 A2991 RMK A01 T03630194  RH  039%=      5-min Rain = 0
KHA1 121740Z 20010G16KT 37/19 A2991 RMK A01 T03650190  RH  038%=      5-min Rain = 0
KHA1 121745Z 20010G16KT 37/19 A2991 RMK A01 T03690189  RH  037%=      5-min Rain = 0
KHA1 121750Z 20010KT 37/19 A2991 RMK A01 T03680191  RH  038%=      5-min Rain = 0
KHA1 121755Z 18008G15KT 37/18 A2991 RMK A01 T03680182  RH  036%=      5-min Rain = 0
KHA1 121800Z 20011G16KT 37/18 A2991 RMK A01 T03720184  RH  035%=      5-min Rain = 0
KHA1 121805Z 19009G15KT 37/19 A2991 RMK A01 T03700188  RH  037%=      5-min Rain = 0
KHA1 121810Z 18009G14KT 37/19 A2991 RMK A01 T03700186  RH  036%=      5-min Rain = 0
KHA1 121815Z 16008G14KT 37/18 A2991 RMK A01 T03670183  RH  036%=      5-min Rain = 0
KHA1 121820Z 18009KT 37/18 A299 RMK A01 T03710183  RH  035%=      5-min Rain = 0
KHA1 121825Z 19008G15KT 38/18 A299 RMK A01 T03750180  RH  034%=      5-min Rain = 0
KHA1 121830Z 16009G14KT 38/18 A299 RMK A01 T03750181  RH  034%=      5-min Rain = 0
KHA1 121835Z 16007G12KT 37/18 A299 RMK A01 T03710183  RH  035%=      5-min Rain = 0
KHA1 121840Z 19010KT 38/18 A299 RMK A01 T03780177  RH  032%=      5-min Rain = 0
KHA1 121845Z 14008G13KT 38/18 A2989 RMK A01 T03770179  RH  033%=      5-min Rain = 0
KHA1 121850Z 14009G14KT 38/17 A2989 RMK A01 T03750170  RH  032%=      5-min Rain = 0
KHA1 121855Z 16009G14KT 38/17 A2989 RMK A01 T03780174  RH  032%=      5-min Rain = 0
KHA1 121900Z 15007KT 38/17 A2989 RMK A01 T03760174  RH  032%=      5-min Rain = 0
KHA1 121905Z 18009G14KT 38/17 A2989 RMK A01 T03810168  RH  030%=      5-min Rain = 0
KHA1 121910Z 16009G14KT 38/17 A2989 RMK A01 T03790168  RH  030%=      5-min Rain = 0
KHA1 121915Z 15008G13KT 38/17 A2989 RMK A01 T03840166  RH  029%=      5-min Rain = 0
KHA1 121920Z 15009G15KT 38/17 A2989 RMK A01 T03840168  RH  030%=      5-min Rain = 0
KHA1 121925Z 17008G13KT 38/16 A2988 RMK A01 T03830162  RH  029%=      5-min Rain = 0
KHA1 121930Z 16010KT 38/17 A2988 RMK A01 T03790165  RH  030%=      5-min Rain = 0
KHA1 121935Z 14008G13KT 38/16 A2988 RMK A01 T03830159  RH  028%=      5-min Rain = 0
KHA1 121940Z 14010KT 38/16 A2988 RMK A01 T03830164  RH  029%=      5-min Rain = 0
KHA1 121945Z 16008G16KT 38/17 A2987 RMK A01 T03830165  RH  029%=      5-min Rain = 0
KHA1 121950Z 15012G19KT 38/16 A2987 RMK A01 T03800162  RH  029%=      5-min Rain = 0
KHA1 121955Z 18009G14KT 38/16 A2987 RMK A01 T03820160  RH  029%=      5-min Rain = 0
KHA1 122000Z 17007G12KT 38/16 A2987 RMK A01 T03840161  RH  028%=      5-min Rain = 0
KHA1 122005Z 15009G14KT 39/15 A2987 RMK A01 T03850149  RH  026%=      5-min Rain = 0
KHA1 122010Z 18009G14KT 39/15 A2987 RMK A01 T03890149  RH  025%=      5-min Rain = 0
KHA1 122015Z 19009KT 39/16 A2986 RMK A01 T03880157  RH  027%=      5-min Rain = 0
KHA1 122020Z 16009G17KT 39/16 A2986 RMK A01 T03880159  RH  027%=      5-min Rain = 0
KHA1 122025Z 18012KT 39/15 A2986 RMK A01 T03900146  RH  025%=      5-min Rain = 0
KHA1 122030Z 19009G14KT 39/16 A2986 RMK A01 T03940157  RH  026%=      5-min Rain = 0
KHA1 122035Z 16008KT 39/16 A2985 RMK A01 T03890162  RH  028%=      5-min Rain = 0
KHA1 122040Z 16011G16KT 39/16 A2985 RMK A01 T03870162  RH  028%=      5-min Rain = 0
KHA1 122045Z 15010G15KT 39/16 A2985 RMK A01 T03850157  RH  027%=      5-min Rain = 0
KHA1 122050Z 16010KT 38/15 A2985 RMK A01 T03840152  RH  027%=      5-min Rain = 0
KHA1 122055Z 16009G15KT 39/15 A2984 RMK A01 T03900152  RH  026%=      5-min Rain = 0
KHA1 122100Z 15010KT 39/16 A2984 RMK A01 T03870158  RH  027%=      5-min Rain = 0
KHA1 122105Z 14009G14KT 39/16 A2984 RMK A01 T03860160  RH  028%=      5-min Rain = 0
KHA1 122110Z 15011G16KT 39/16 A2984 RMK A01 T03880160  RH  028%=      5-min Rain = 0
KHA1 122115Z 16010KT 38/16 A2984 RMK A01 T03840158  RH  028%=      5-min Rain = 0
KHA1 122120Z 17011KT 39/15 A2983 RMK A01 T03870151  RH  026%=      5-min Rain = 0
KHA1 122125Z 17010KT 39/15 A2983 RMK A01 T03920150  RH  025%=      5-min Rain = 0
KHA1 122130Z 17009G14KT 39/15 A2983 RMK A01 T03920145  RH  024%=      5-min Rain = 0
KHA1 122135Z 19010G15KT 39/15 A2983 RMK A01 T03940145  RH  024%=      5-min Rain = 0
KHA1 122140Z 17010KT 40/15 A2983 RMK A01 T03950151  RH  025%=      5-min Rain = 0
KHA1 122145Z 15007G15KT 39/15 A2983 RMK A01 T03910150  RH  025%=      5-min Rain = 0
KHA1 122150Z 14012G17KT 39/14 A2982 RMK A01 T03910143  RH  024%=      5-min Rain = 0
KHA1 122155Z 16009G16KT 39/15 A2982 RMK A01 T03910145  RH  024%=      5-min Rain = 0
KHA1 122200Z 18011G16KT 40/15 A2982 RMK A01 T03960150  RH  025%=      5-min Rain = 0
KHA1 122205Z 17011G16KT 40/15 A2982 RMK A01 T03970148  RH  024%=      5-min Rain = 0
KHA1 122210Z 16012G17KT 39/15 A2982 RMK A01 T03940148  RH  025%=      5-min Rain = 0
KHA1 122215Z 16010G15KT 39/15 A2982 RMK A01 T03920148  RH  025%=      5-min Rain = 0
KHA1 122220Z 17009G14KT 40/14 A2982 RMK A01 T03970144  RH  024%=      5-min Rain = 0
KHA1 122225Z 17013KT 39/14 A2982 RMK A01 T03920144  RH  024%=      5-min Rain = 0
KHA1 122230Z 18010G17KT 40/15 A2982 RMK A01 T03980145  RH  024%=      5-min Rain = 0
KHA1 122235Z 16010G15KT 39/14 A2981 RMK A01 T03940141  RH  023%=      5-min Rain = 0
KHA1 122240Z 17010G17KT 39/14 A2981 RMK A01 T03940144  RH  024%=      5-min Rain = 0
KHA1 122245Z 16010KT 39/15 A2981 RMK A01 T03940146  RH  024%=      5-min Rain = 0
KHA1 122250Z 16009G15KT 39/14 A2981 RMK A01 T03930144  RH  024%=      5-min Rain = 0
KHA1 122255Z 16009G14KT 39/15 A2981 RMK A01 T03930145  RH  024%=      5-min Rain = 0
KHA1 122300Z 16011G18KT 39/14 A2981 RMK A01 T03900144  RH  024%=      5-min Rain = 0
KHA1 122305Z 17011G16KT 39/14 A2981 RMK A01 T03900140  RH  024%=      5-min Rain = 0
KHA1 122310Z 17010G17KT 39/14 A2981 RMK A01 T03930143  RH  024%=      5-min Rain = 0
KHA1 122315Z 15008KT 39/14 A298 RMK A01 T03910138  RH  023%=      5-min Rain = 0
KHA1 122320Z 17010KT 39/14 A298 RMK A01 T03910141  RH  024%=      5-min Rain = 0
KHA1 122325Z 17011KT 39/14 A298 RMK A01 T03930142  RH  024%=      5-min Rain = 0
KHA1 122330Z 17009G15KT 39/14 A298 RMK A01 T03900141  RH  024%=      5-min Rain = 0
KHA1 122335Z 15010KT 39/14 A298 RMK A01 T03890140  RH  024%=      5-min Rain = 0
KHA1 122340Z 15010G16KT 39/14 A2979 RMK A01 T03870140  RH  024%=      5-min Rain = 0
KHA1 122345Z 15008KT 39/14 A2979 RMK A01 T03870142  RH  025%=      5-min Rain = 0
KHA1 122350Z 16009KT 39/14 A2979 RMK A01 T03870143  RH  025%=      5-min Rain = 0
KHA1 122355Z 16011G18KT 39/14 A2979 RMK A01 T03870143  RH  025%=      5-min Rain = 0
KHA1 130000Z 15010G15KT 39/14 A2979 RMK A01 T03850142  RH  025%=      5-min Rain = 0
KHA1 130005Z 16010G15KT 38/14 A2979 RMK A01 T03840144  RH  025%=      5-min Rain = 0
KHA1 130010Z 16009KT 38/14 A2979 RMK A01 T03840142  RH  025%=      5-min Rain = 0
KHA1 130015Z 15009G15KT 38/14 A2979 RMK A01 T03830140  RH  025%=      5-min Rain = 0
KHA1 130020Z 16008G14KT 38/14 A2979 RMK A01 T03820142  RH  025%=      5-min Rain = 0
KHA1 130025Z 16009KT 38/14 A2979 RMK A01 T03810144  RH  026%=      5-min Rain = 0
KHA1 130030Z 15008G13KT 38/15 A2979 RMK A01 T03800145  RH  026%=      5-min Rain = 0
KHA1 130035Z 16008KT 38/15 A2979 RMK A01 T03790145  RH  026%=      5-min Rain = 0
KHA1 130040Z 16008KT 38/15 A2979 RMK A01 T03790146  RH  026%=      5-min Rain = 0
KHA1 130045Z 15008G13KT 38/15 A2979 RMK A01 T03770149  RH  027%=      5-min Rain = 0
KHA1 130050Z 15009G15KT 38/15 A2979 RMK A01 T03750148  RH  027%=      5-min Rain = 0
KHA1 130055Z 15009G14KT 37/15 A2979 RMK A01 T03730148  RH  027%=      5-min Rain = 0
KHA1 130100Z 15010G15KT 37/15 A2979 RMK A01 T03730147  RH  027%=      5-min Rain = 0
KHA1 130105Z 15008KT 37/15 A2979 RMK A01 T03710149  RH  028%=      5-min Rain = 0
KHA1 130110Z 14007KT 37/15 A298 RMK A01 T03690150  RH  029%=      5-min Rain = 0
KHA1 130115Z 14007G12KT 37/15 A298 RMK A01 T03660153  RH  029%=      5-min Rain = 0
KHA1 130120Z 14008G13KT 36/15 A298 RMK A01 T03630154  RH  030%=      5-min Rain = 0
KHA1 130125Z 14007KT 36/16 A298 RMK A01 T03620155  RH  031%=      5-min Rain = 0
KHA1 130130Z 14007KT 36/16 A298 RMK A01 T03610155  RH  031%=      5-min Rain = 0
KHA1 130135Z 14008KT 36/16 A298 RMK A01 T03580156  RH  031%=      5-min Rain = 0
KHA1 130140Z 14008KT 36/16 A298 RMK A01 T03580155  RH  031%=      5-min Rain = 0
KHA1 130145Z 13007KT 36/16 A298 RMK A01 T03560156  RH  032%=      5-min Rain = 0
KHA1 130150Z 13007KT 35/16 A2981 RMK A01 T03540156  RH  032%=      5-min Rain = 0
KHA1 130155Z 13008KT 35/16 A2981 RMK A01 T03510157  RH  033%=      5-min Rain = 0
KHA1 130200Z 13009KT 35/16 A2981 RMK A01 T03490157  RH  033%=      5-min Rain = 0
KHA1 130205Z 13010KT 35/16 A2981 RMK A01 T03500158  RH  033%=      5-min Rain = 0
KHA1 130210Z 13009KT 35/16 A2981 RMK A01 T03480158  RH  034%=      5-min Rain = 0
KHA1 130215Z 13009KT 35/16 A2982 RMK A01 T03460160  RH  035%=      5-min Rain = 0
KHA1 130220Z 13008G13KT 34/16 A2982 RMK A01 T03440161  RH  035%=      5-min Rain = 0
KHA1 130225Z 13009KT 34/16 A2982 RMK A01 T03420162  RH  036%=      5-min Rain = 0
KHA1 130230Z 13008KT 34/16 A2982 RMK A01 T03410163  RH  036%=      5-min Rain = 0
KHA1 130235Z 13008KT 34/16 A2982 RMK A01 T03400164  RH  037%=      5-min Rain = 0
KHA1 130240Z 13009G14KT 34/16 A2982 RMK A01 T03390164  RH  037%=      5-min Rain = 0
KHA1 130245Z 13009KT 34/17 A2982 RMK A01 T03380165  RH  037%=      5-min Rain = 0
KHA1 130250Z 14009KT 34/17 A2982 RMK A01 T03370165  RH  038%=      5-min Rain = 0
KHA1 130255Z 14008G13KT 34/17 A2982 RMK A01 T03360166  RH  038%=      5-min Rain = 0
KHA1 130300Z 14009G14KT 34/17 A2982 RMK A01 T03360166  RH  038%=      5-min Rain = 0
KHA1 130305Z 14008KT 34/17 A2982 RMK A01 T03350167  RH  039%=      5-min Rain = 0
KHA1 130310Z 14009KT 33/17 A2982 RMK A01 T03340167  RH  039%=      5-min Rain = 0
KHA1 130315Z 14009KT 33/17 A2982 RMK A01 T03330167  RH  039%=      5-min Rain = 0
KHA1 130320Z 14009KT 33/17 A2982 RMK A01 T03320167  RH  039%=      5-min Rain = 0
KHA1 130325Z 13008KT 33/17 A2982 RMK A01 T03310168  RH  040%=      5-min Rain = 0
KHA1 130330Z 13009G15KT 33/17 A2982 RMK A01 T03290168  RH  040%=      5-min Rain = 0
KHA1 130335Z 13010G15KT 33/17 A2982 RMK A01 T03290168  RH  040%=      5-min Rain = 0
KHA1 130340Z 13009KT 33/17 A2982 RMK A01 T03290168  RH  040%=      5-min Rain = 0
KHA1 130345Z 13009G14KT 33/17 A2983 RMK A01 T03270168  RH  041%=      5-min Rain = 0
KHA1 130350Z 13010G15KT 33/17 A2983 RMK A01 T03260168  RH  041%=      5-min Rain = 0
KHA1 130355Z 14009KT 32/17 A2983 RMK A01 T03240169  RH  042%=      5-min Rain = 0
KHA1 130400Z 14011KT 32/17 A2983 RMK A01 T03240170  RH  042%=      5-min Rain = 0
KHA1 130405Z 14010KT 32/17 A2983 RMK A01 T03240172  RH  042%=      5-min Rain = 0
KHA1 130410Z 14010KT 32/17 A2983 RMK A01 T03230172  RH  043%=      5-min Rain = 0
KHA1 130415Z 14010KT 32/17 A2983 RMK A01 T03230173  RH  043%=      5-min Rain = 0
KHA1 130420Z 14010KT 32/17 A2983 RMK A01 T03220174  RH  043%=      5-min Rain = 0
KHA1 130425Z 13009KT 32/17 A2983 RMK A01 T03210174  RH  044%=      5-min Rain = 0
KHA1 130430Z 13009KT 32/17 A2983 RMK A01 T03200174  RH  044%=      5-min Rain = 0
KHA1 130435Z 14009G15KT 32/17 A2983 RMK A01 T03190174  RH  044%=      5-min Rain = 0
KHA1 130440Z 14009G15KT 32/17 A2983 RMK A01 T03190174  RH  044%=      5-min Rain = 0
KHA1 130445Z 14009KT 32/17 A2983 RMK A01 T03180174  RH  045%=      5-min Rain = 0
KHA1 130450Z 13008G13KT 32/18 A2983 RMK A01 T03160175  RH  045%=      5-min Rain = 0
KHA1 130455Z 14008KT 32/17 A2983 RMK A01 T03150174  RH  045%=      5-min Rain = 0

Page generated in 0.009 seconds.